Time;durP1;ratioP1;P1;durP2;ratioP2;P2;SDS_P1;SDS_P2;PMS_P1;PMS_P2;Temp;Humidity;BMP_temperature;BMP_pressure;BME280_temperature;BME280_humidity;BME280_pressure;Samples;Min_cycle;Max_cycle;Signal;HPM_P1;HPM_P2
2023/12/31 00:01:37;;;;;;;11.90;9.07;;;;;;;;;;5068645;28;20651;-79
2023/12/31 00:04:03;;;;;;;8.98;8.07;;;;;;;;;;5062339;28;20041;-80
2023/12/31 00:06:29;;;;;;;9.85;8.82;;;;;;;;;;5054220;28;20086;-81
2023/12/31 00:08:54;;;;;;;10.90;9.38;;;;;;;;;;5055807;28;20124;-79
2023/12/31 00:11:21;;;;;;;14.02;9.23;;;;;;;;;;5064795;28;20069;-79
2023/12/31 00:13:47;;;;;;;8.25;7.53;;;;;;;;;;5050133;28;20048;-79
2023/12/31 00:16:13;;;;;;;7.63;6.85;;;;;;;;;;5050736;28;20044;-80
2023/12/31 00:18:39;;;;;;;11.27;8.60;;;;;;;;;;5047545;28;20114;-79
2023/12/31 00:21:04;;;;;;;10.18;9.20;;;;;;;;;;5053881;28;20577;-79
2023/12/31 00:23:30;;;;;;;10.70;9.13;;;;;;;;;;5050856;28;20094;-80
2023/12/31 00:25:56;;;;;;;10.50;9.35;;;;;;;;;;5055146;28;20065;-79
2023/12/31 00:28:22;;;;;;;7.32;6.63;;;;;;;;;;5046834;28;20099;-79
2023/12/31 00:30:47;;;;;;;12.73;9.23;;;;;;;;;;5049687;28;20036;-80
2023/12/31 00:33:13;;;;;;;6.70;6.28;;;;;;;;;;5050496;28;20087;-79
2023/12/31 00:35:38;;;;;;;11.32;8.63;;;;;;;;;;5048825;28;20556;-80
2023/12/31 00:38:04;;;;;;;11.98;9.38;;;;;;;;;;5071615;28;20388;-79
2023/12/31 00:40:29;;;;;;;9.00;8.13;;;;;;;;;;5050886;28;20021;-79
2023/12/31 00:42:55;;;;;;;9.95;7.50;;;;;;;;;;5054998;28;20102;-79
2023/12/31 00:45:21;;;;;;;7.43;6.72;;;;;;;;;;5037723;28;20052;-79
2023/12/31 00:47:47;;;;;;;10.02;8.10;;;;;;;;;;5053810;28;20063;-80
2023/12/31 00:50:12;;;;;;;10.05;9.02;;;;;;;;;;5052241;28;20041;-80
2023/12/31 00:52:38;;;;;;;9.80;8.85;;;;;;;;;;5050812;28;20032;-79
2023/12/31 00:55:04;;;;;;;9.57;8.57;;;;;;;;;;5049096;28;20033;-80
2023/12/31 00:57:30;;;;;;;8.48;7.63;;;;;;;;;;5029380;28;20034;-80
2023/12/31 00:59:57;;;;;;;10.20;8.30;;;;;;;;;;5047586;28;20124;-80
2023/12/31 01:02:23;;;;;;;7.97;7.28;;;;;;;;;;5050060;28;20072;-80
2023/12/31 01:04:48;;;;;;;7.70;7.00;;;;;;;;;;5060762;28;20031;-79
2023/12/31 01:07:14;;;;;;;7.18;6.68;;;;;;;;;;5028961;28;20053;-80
2023/12/31 01:09:40;;;;;;;8.00;7.18;;;;;;;;;;5051034;28;20045;-79
2023/12/31 01:12:06;;;;;;;8.23;7.63;;;;;;;;;;5026778;28;20769;-80
2023/12/31 01:14:34;;;;;;;8.10;7.40;;;;;;;;;;5029774;28;20041;-80
2023/12/31 01:16:59;;;;;;;11.63;10.15;;;;;;;;;;5048481;28;20033;-80
2023/12/31 01:19:25;;;;;;;12.07;9.77;;;;;;;;;;5031173;28;20430;-80
2023/12/31 01:21:51;;;;;;;13.02;10.68;;;;;;;;;;5032984;28;20068;-81
2023/12/31 01:24:16;;;;;;;10.90;9.80;;;;;;;;;;5047824;28;20040;-79
2023/12/31 01:26:42;;;;;;;12.05;10.77;;;;;;;;;;5035645;28;20058;-80
2023/12/31 01:29:07;;;;;;;10.75;9.30;;;;;;;;;;5045487;28;20056;-80
2023/12/31 01:31:33;;;;;;;13.13;10.40;;;;;;;;;;5056084;28;20047;-79
2023/12/31 01:33:59;;;;;;;14.50;11.18;;;;;;;;;;5050763;28;20040;-81
2023/12/31 01:36:24;;;;;;;11.68;10.27;;;;;;;;;;5046603;28;20045;-80
2023/12/31 01:38:50;;;;;;;18.48;11.38;;;;;;;;;;5046389;28;20075;-79
2023/12/31 01:41:16;;;;;;;17.02;11.68;;;;;;;;;;5048750;28;20522;-80
2023/12/31 01:43:41;;;;;;;15.45;11.77;;;;;;;;;;5048615;28;20044;-80
2023/12/31 01:46:09;;;;;;;16.25;11.90;;;;;;;;;;5052475;28;20133;-80
2023/12/31 01:48:35;;;;;;;15.93;12.73;;;;;;;;;;5067050;28;20037;-80
2023/12/31 01:51:02;;;;;;;16.92;12.35;;;;;;;;;;5059477;28;20048;-79
2023/12/31 01:53:28;;;;;;;14.73;12.00;;;;;;;;;;5058531;28;20151;-79
2023/12/31 01:55:55;;;;;;;20.02;12.57;;;;;;;;;;5058087;28;20040;-78
2023/12/31 01:58:21;;;;;;;16.30;11.88;;;;;;;;;;5051165;28;20257;-80
2023/12/31 02:00:48;;;;;;;17.58;11.40;;;;;;;;;;5030674;28;20037;-80
2023/12/31 02:03:15;;;;;;;11.70;10.27;;;;;;;;;;5045631;28;20125;-80
2023/12/31 02:05:41;;;;;;;16.45;12.57;;;;;;;;;;5045684;28;20033;-80
2023/12/31 02:08:07;;;;;;;16.15;12.50;;;;;;;;;;5034410;28;20403;-80
2023/12/31 02:10:32;;;;;;;15.18;9.95;;;;;;;;;;5067449;28;20119;-80
2023/12/31 02:12:58;;;;;;;14.80;10.30;;;;;;;;;;5049499;28;20032;-79
2023/12/31 02:15:34;;;;;;;13.85;10.90;;;;;;;;;;5044549;28;20039;-79
2023/12/31 02:18:02;;;;;;;14.57;10.35;;;;;;;;;;5065243;28;20098;-80
2023/12/31 02:20:29;;;;;;;16.83;13.10;;;;;;;;;;5050558;28;20037;-80
2023/12/31 02:22:54;;;;;;;16.08;13.07;;;;;;;;;;5055050;28;20807;-80
2023/12/31 02:25:23;;;;;;;16.52;12.55;;;;;;;;;;5050975;28;20125;-80
2023/12/31 02:27:49;;;;;;;16.40;11.95;;;;;;;;;;5048002;28;20047;-79
2023/12/31 02:30:15;;;;;;;12.45;10.43;;;;;;;;;;5047680;28;20059;-79
2023/12/31 02:32:40;;;;;;;15.10;11.15;;;;;;;;;;5035718;28;20037;-80
2023/12/31 02:35:07;;;;;;;13.13;11.68;;;;;;;;;;5049417;28;20541;-79
2023/12/31 02:37:33;;;;;;;9.65;8.70;;;;;;;;;;5050378;28;20191;-80
2023/12/31 02:39:58;;;;;;;13.77;11.02;;;;;;;;;;5048364;28;20747;-80
2023/12/31 02:42:24;;;;;;;14.50;11.15;;;;;;;;;;5050477;28;20072;-80
2023/12/31 02:44:50;;;;;;;17.35;13.30;;;;;;;;;;5049829;28;20039;-80
2023/12/31 02:47:15;;;;;;;16.00;11.38;;;;;;;;;;5049426;28;20037;-80
2023/12/31 02:49:41;;;;;;;15.30;12.25;;;;;;;;;;5032532;28;20135;-80
2023/12/31 02:52:07;;;;;;;13.68;11.23;;;;;;;;;;5049398;28;20048;-80
2023/12/31 02:54:32;;;;;;;13.82;11.70;;;;;;;;;;5034240;28;20060;-80
2023/12/31 02:56:58;;;;;;;14.93;12.20;;;;;;;;;;5029326;28;20045;-79
2023/12/31 02:59:23;;;;;;;15.05;12.05;;;;;;;;;;5049418;28;20042;-80
2023/12/31 03:01:52;;;;;;;20.92;14.00;;;;;;;;;;5047637;28;20033;-79
2023/12/31 03:04:17;;;;;;;13.55;11.55;;;;;;;;;;5031267;28;20041;-80
2023/12/31 03:06:44;;;;;;;10.88;9.80;;;;;;;;;;5047343;28;20040;-80
2023/12/31 03:09:09;;;;;;;18.38;11.55;;;;;;;;;;5033612;28;20043;-80
2023/12/31 03:11:35;;;;;;;14.15;10.57;;;;;;;;;;5046544;28;20087;-80
2023/12/31 03:14:01;;;;;;;14.98;10.60;;;;;;;;;;5067109;28;20029;-79
2023/12/31 03:16:26;;;;;;;10.85;9.75;;;;;;;;;;5064900;28;20033;-80
2023/12/31 03:18:55;;;;;;;10.32;9.27;;;;;;;;;;5048554;28;20120;-80
2023/12/31 03:21:21;;;;;;;11.68;9.10;;;;;;;;;;5048321;28;20099;-79
2023/12/31 03:23:47;;;;;;;8.10;7.43;;;;;;;;;;5051621;28;20049;-80
2023/12/31 03:26:12;;;;;;;7.82;7.05;;;;;;;;;;5026922;28;20136;-79
2023/12/31 03:28:38;;;;;;;8.90;8.02;;;;;;;;;;5045142;28;20456;-80
2023/12/31 03:31:04;;;;;;;8.18;7.45;;;;;;;;;;5046815;28;20045;-79
2023/12/31 03:33:31;;;;;;;9.07;8.20;;;;;;;;;;5027189;28;20035;-79
2023/12/31 03:35:56;;;;;;;13.93;9.65;;;;;;;;;;5035818;28;20035;-79
2023/12/31 03:38:22;;;;;;;13.48;11.02;;;;;;;;;;5046034;28;20549;-80
2023/12/31 03:40:48;;;;;;;12.65;10.50;;;;;;;;;;5043271;28;20036;-80
2023/12/31 03:43:14;;;;;;;10.18;9.20;;;;;;;;;;5053559;28;20467;-81
2023/12/31 03:45:40;;;;;;;12.18;9.48;;;;;;;;;;5043285;28;20138;-80
2023/12/31 03:48:06;;;;;;;14.05;10.70;;;;;;;;;;5067107;28;20037;-80
2023/12/31 03:50:32;;;;;;;13.38;9.98;;;;;;;;;;5049527;28;20033;-80
2023/12/31 03:52:57;;;;;;;11.15;9.85;;;;;;;;;;5033034;28;20043;-80
2023/12/31 03:55:23;;;;;;;12.27;10.60;;;;;;;;;;5050815;28;20037;-80
2023/12/31 03:57:49;;;;;;;14.93;10.85;;;;;;;;;;5051482;28;20040;-80
2023/12/31 04:00:17;;;;;;;14.68;10.63;;;;;;;;;;5034413;28;20067;-80
2023/12/31 04:02:43;;;;;;;11.20;9.82;;;;;;;;;;5052339;28;20322;-80
2023/12/31 04:05:09;;;;;;;15.30;10.55;;;;;;;;;;5050628;28;20029;-80
2023/12/31 04:07:35;;;;;;;15.05;10.93;;;;;;;;;;5034177;28;20045;-80
2023/12/31 04:10:01;;;;;;;10.77;9.60;;;;;;;;;;5029856;28;20065;-80
2023/12/31 04:12:27;;;;;;;10.13;8.98;;;;;;;;;;5051335;28;20422;-80
2023/12/31 04:14:52;;;;;;;12.20;10.25;;;;;;;;;;5022936;28;20051;-80
2023/12/31 04:17:18;;;;;;;12.00;9.63;;;;;;;;;;5052004;28;20078;-80
2023/12/31 04:19:45;;;;;;;11.45;8.98;;;;;;;;;;5049413;28;20037;-81
2023/12/31 04:22:10;;;;;;;11.88;8.90;;;;;;;;;;5046162;28;20441;-81
2023/12/31 04:24:36;;;;;;;7.00;6.50;;;;;;;;;;5029872;28;20153;-80
2023/12/31 04:27:02;;;;;;;7.32;6.63;;;;;;;;;;5048767;28;20339;-79
2023/12/31 04:29:27;;;;;;;11.65;8.25;;;;;;;;;;5047227;28;20558;-80
2023/12/31 04:31:53;;;;;;;8.68;7.90;;;;;;;;;;5050045;28;20411;-80
2023/12/31 04:34:18;;;;;;;7.82;7.07;;;;;;;;;;5033758;28;20667;-79
2023/12/31 04:36:45;;;;;;;8.55;7.70;;;;;;;;;;5037685;28;20025;-79
2023/12/31 04:39:13;;;;;;;9.40;8.52;;;;;;;;;;5049902;28;20513;-80
2023/12/31 04:41:39;;;;;;;10.30;8.50;;;;;;;;;;5030216;28;20048;-80
2023/12/31 04:44:04;;;;;;;15.95;11.10;;;;;;;;;;5049887;28;20045;-80
2023/12/31 04:46:30;;;;;;;10.45;8.25;;;;;;;;;;5034800;28;20052;-81
2023/12/31 04:48:56;;;;;;;10.40;7.50;;;;;;;;;;5051183;28;20039;-80
2023/12/31 04:51:29;;;;;;;10.70;8.23;;;;;;;;;;5051055;28;20121;-80
2023/12/31 04:53:56;;;;;;;14.27;7.65;;;;;;;;;;5051595;28;20037;-80
2023/12/31 04:56:26;;;;;;;10.05;8.13;;;;;;;;;;5036910;28;20635;-79
2023/12/31 04:58:55;;;;;;;7.47;6.68;;;;;;;;;;5047625;28;20064;-79
2023/12/31 05:01:22;;;;;;;14.87;13.53;;;;;;;;;;5046937;28;20492;-80
2023/12/31 05:03:49;;;;;;;16.20;12.27;;;;;;;;;;5048783;28;20303;-80
2023/12/31 05:06:15;;;;;;;7.78;7.18;;;;;;;;;;5041519;28;20041;-79
2023/12/31 05:08:43;;;;;;;6.30;5.78;;;;;;;;;;5048065;28;20064;-79
2023/12/31 05:11:09;;;;;;;7.10;5.53;;;;;;;;;;5047634;28;20044;-79
2023/12/31 05:13:34;;;;;;;6.45;5.95;;;;;;;;;;5049778;28;20036;-79
2023/12/31 05:16:02;;;;;;;5.22;4.93;;;;;;;;;;5049640;28;20033;-79
2023/12/31 05:18:28;;;;;;;6.07;5.68;;;;;;;;;;5051073;28;20047;-79
2023/12/31 05:20:53;;;;;;;5.35;5.05;;;;;;;;;;5048386;28;20041;-79
2023/12/31 05:23:19;;;;;;;6.72;5.43;;;;;;;;;;5051649;28;20137;-79
2023/12/31 05:25:44;;;;;;;6.50;5.90;;;;;;;;;;5033698;28;20041;-80
2023/12/31 05:28:10;;;;;;;5.18;4.88;;;;;;;;;;5046360;28;20637;-80
2023/12/31 05:30:36;;;;;;;5.97;5.57;;;;;;;;;;5051823;28;20029;-80
2023/12/31 05:33:01;;;;;;;5.40;5.10;;;;;;;;;;5055529;28;20032;-80
2023/12/31 05:35:27;;;;;;;6.68;6.07;;;;;;;;;;5043801;28;20067;-79
2023/12/31 05:37:53;;;;;;;7.07;6.47;;;;;;;;;;5042448;28;20041;-80
2023/12/31 05:40:19;;;;;;;9.02;7.40;;;;;;;;;;5047719;28;20124;-81
2023/12/31 05:42:44;;;;;;;8.13;7.43;;;;;;;;;;5047049;28;20076;-80
2023/12/31 05:45:10;;;;;;;8.00;7.30;;;;;;;;;;5054101;28;20035;-79
2023/12/31 05:47:36;;;;;;;7.55;6.85;;;;;;;;;;5044901;28;20677;-80
2023/12/31 05:50:01;;;;;;;8.05;7.35;;;;;;;;;;5050767;28;20029;-78
2023/12/31 05:52:27;;;;;;;8.13;7.35;;;;;;;;;;5050311;28;20040;-79
2023/12/31 05:54:52;;;;;;;8.45;7.55;;;;;;;;;;5047354;28;20036;-79
2023/12/31 05:57:18;;;;;;;7.95;7.18;;;;;;;;;;5032773;28;20047;-78
2023/12/31 05:59:44;;;;;;;8.07;7.28;;;;;;;;;;5049355;28;20029;-79
2023/12/31 06:02:09;;;;;;;7.28;6.68;;;;;;;;;;5048214;28;20043;-78
2023/12/31 06:04:35;;;;;;;7.55;6.90;;;;;;;;;;5046832;28;20037;-79
2023/12/31 06:07:00;;;;;;;7.47;6.78;;;;;;;;;;5051301;28;20052;-78
2023/12/31 06:09:26;;;;;;;7.95;6.82;;;;;;;;;;5046063;28;20037;-79
2023/12/31 06:11:52;;;;;;;7.65;6.38;;;;;;;;;;5044448;28;20036;-78
2023/12/31 06:14:18;;;;;;;7.60;6.90;;;;;;;;;;5042300;28;20394;-79
2023/12/31 06:16:43;;;;;;;7.90;7.20;;;;;;;;;;5063218;28;20045;-80
2023/12/31 06:19:09;;;;;;;7.97;7.25;;;;;;;;;;5046944;28;20509;-78
2023/12/31 06:21:34;;;;;;;8.32;7.57;;;;;;;;;;5049451;28;20033;-79
2023/12/31 06:24:00;;;;;;;8.20;7.40;;;;;;;;;;5043730;28;20086;-79
2023/12/31 06:26:26;;;;;;;8.80;7.90;;;;;;;;;;5042681;28;20041;-79
2023/12/31 06:28:51;;;;;;;9.27;7.95;;;;;;;;;;5048023;28;20033;-79
2023/12/31 06:31:17;;;;;;;8.57;7.78;;;;;;;;;;5044668;28;20037;-79
2023/12/31 06:33:42;;;;;;;8.93;8.10;;;;;;;;;;5042390;28;20035;-80
2023/12/31 06:36:08;;;;;;;9.50;8.60;;;;;;;;;;5030624;28;20044;-79
2023/12/31 06:38:33;;;;;;;9.15;8.25;;;;;;;;;;5029112;28;20043;-80
2023/12/31 06:41:06;;;;;;;10.63;8.73;;;;;;;;;;5048163;28;20033;-80
2023/12/31 06:43:31;;;;;;;10.90;7.93;;;;;;;;;;5060729;28;20391;-80
2023/12/31 06:45:57;;;;;;;10.68;9.38;;;;;;;;;;5064013;28;20033;-81
2023/12/31 06:48:23;;;;;;;10.88;9.25;;;;;;;;;;5066781;28;20056;-81
2023/12/31 06:50:48;;;;;;;14.55;9.13;;;;;;;;;;5058981;28;20045;-80
2023/12/31 06:53:14;;;;;;;9.00;8.20;;;;;;;;;;5035492;28;20578;-78
2023/12/31 06:55:39;;;;;;;9.20;8.30;;;;;;;;;;5029729;28;20611;-79
2023/12/31 06:58:05;;;;;;;10.07;8.93;;;;;;;;;;5050703;28;20048;-79
2023/12/31 07:00:30;;;;;;;9.20;7.90;;;;;;;;;;5048603;28;20072;-79
2023/12/31 07:02:56;;;;;;;8.90;7.82;;;;;;;;;;5049582;28;20101;-80
2023/12/31 07:05:21;;;;;;;8.48;7.05;;;;;;;;;;5044198;28;20064;-79
2023/12/31 07:07:47;;;;;;;9.30;7.85;;;;;;;;;;5048317;28;20033;-79
2023/12/31 07:10:12;;;;;;;9.90;7.80;;;;;;;;;;5046596;28;20040;-77
2023/12/31 07:12:38;;;;;;;8.13;7.32;;;;;;;;;;5043064;28;20037;-78
2023/12/31 07:15:04;;;;;;;8.45;7.55;;;;;;;;;;5051095;28;20049;-78
2023/12/31 07:17:29;;;;;;;12.55;9.52;;;;;;;;;;5045049;28;20041;-78
2023/12/31 07:19:55;;;;;;;8.30;7.50;;;;;;;;;;5046589;28;20082;-78
2023/12/31 07:22:20;;;;;;;7.85;7.13;;;;;;;;;;5044418;28;20041;-79
2023/12/31 07:24:46;;;;;;;10.63;9.23;;;;;;;;;;5029758;28;20037;-79
2023/12/31 07:27:12;;;;;;;7.75;6.95;;;;;;;;;;5030197;28;20048;-79
2023/12/31 07:29:37;;;;;;;8.23;6.90;;;;;;;;;;5044832;28;20039;-79
2023/12/31 07:32:03;;;;;;;7.80;7.00;;;;;;;;;;5045968;28;20154;-79
2023/12/31 07:34:29;;;;;;;8.05;7.35;;;;;;;;;;5043453;28;20036;-79
2023/12/31 07:36:54;;;;;;;7.65;6.93;;;;;;;;;;5046887;28;20037;-79
2023/12/31 07:39:20;;;;;;;7.78;7.10;;;;;;;;;;5046332;28;20032;-79
2023/12/31 07:41:46;;;;;;;7.50;6.90;;;;;;;;;;5050437;28;20059;-79
2023/12/31 07:44:19;;;;;;;6.72;6.22;;;;;;;;;;5048301;28;20036;-79
2023/12/31 07:46:45;;;;;;;7.93;7.13;;;;;;;;;;5032328;28;20099;-79
2023/12/31 07:49:11;;;;;;;8.65;6.45;;;;;;;;;;5028423;28;20123;-79
2023/12/31 07:51:36;;;;;;;8.52;6.97;;;;;;;;;;5045570;28;20450;-79
2023/12/31 07:54:02;;;;;;;7.53;6.70;;;;;;;;;;5045454;28;20832;-79
2023/12/31 07:56:28;;;;;;;9.43;7.72;;;;;;;;;;5046053;28;20041;-79
2023/12/31 07:58:53;;;;;;;8.10;7.40;;;;;;;;;;5043046;28;20498;-79
2023/12/31 08:01:19;;;;;;;7.22;6.60;;;;;;;;;;5050218;28;20395;-78
2023/12/31 08:03:45;;;;;;;7.38;6.78;;;;;;;;;;5044521;28;20041;-78
2023/12/31 08:06:10;;;;;;;9.70;8.73;;;;;;;;;;5047135;28;20048;-79
2023/12/31 08:08:36;;;;;;;12.50;10.30;;;;;;;;;;5046928;28;20402;-79
2023/12/31 08:11:02;;;;;;;11.73;10.50;;;;;;;;;;5043593;28;20045;-79
2023/12/31 08:13:28;;;;;;;13.38;9.05;;;;;;;;;;5052874;28;20041;-79
2023/12/31 08:15:54;;;;;;;9.13;7.28;;;;;;;;;;5037101;28;20434;-77
2023/12/31 08:18:20;;;;;;;10.00;8.85;;;;;;;;;;5045536;28;20041;-77
2023/12/31 08:20:46;;;;;;;8.48;7.80;;;;;;;;;;5040498;28;20117;-77
2023/12/31 08:23:11;;;;;;;9.52;8.48;;;;;;;;;;5046000;28;20156;-78
2023/12/31 08:25:37;;;;;;;10.20;9.05;;;;;;;;;;5042208;28;20666;-79
2023/12/31 08:28:03;;;;;;;10.25;9.20;;;;;;;;;;5024757;28;20613;-79
2023/12/31 08:30:29;;;;;;;9.02;8.13;;;;;;;;;;5040192;28;20094;-79
2023/12/31 08:32:54;;;;;;;11.93;8.18;;;;;;;;;;5039792;28;20039;-81
2023/12/31 08:35:22;;;;;;;12.18;10.77;;;;;;;;;;5040000;28;20037;-80
2023/12/31 08:37:48;;;;;;;12.05;9.25;;;;;;;;;;5049902;28;20099;-79
2023/12/31 08:40:14;;;;;;;10.80;8.57;;;;;;;;;;5048304;28;20033;-79
2023/12/31 08:42:40;;;;;;;9.10;8.20;;;;;;;;;;5024185;28;20033;-79
2023/12/31 08:45:10;;;;;;;13.13;9.40;;;;;;;;;;5046996;28;20048;-78
2023/12/31 08:47:37;;;;;;;9.15;8.25;;;;;;;;;;5051064;28;20071;-79
2023/12/31 08:50:08;;;;;;;11.10;9.93;;;;;;;;;;5045269;28;20072;-79
2023/12/31 08:52:39;;;;;;;9.55;8.18;;;;;;;;;;5032773;28;20068;-79
2023/12/31 08:55:08;;;;;;;6.50;6.05;;;;;;;;;;5047010;28;20402;-79
2023/12/31 08:57:35;;;;;;;8.30;7.50;;;;;;;;;;5034068;28;20503;-79
2023/12/31 09:00:00;;;;;;;9.52;8.38;;;;;;;;;;5049760;28;20024;-79
2023/12/31 09:02:26;;;;;;;10.90;7.53;;;;;;;;;;5039509;28;20033;-78
2023/12/31 09:04:52;;;;;;;6.78;6.38;;;;;;;;;;5048932;28;20513;-79
2023/12/31 09:07:17;;;;;;;6.85;6.35;;;;;;;;;;5060450;28;20972;-79
2023/12/31 09:09:43;;;;;;;7.70;6.38;;;;;;;;;;5047161;28;20452;-78
2023/12/31 09:12:08;;;;;;;6.28;5.80;;;;;;;;;;5048033;28;20180;-81
2023/12/31 09:14:34;;;;;;;6.75;6.25;;;;;;;;;;5048872;28;20037;-80
2023/12/31 09:16:59;;;;;;;7.15;6.53;;;;;;;;;;5029984;28;20036;-80
2023/12/31 09:19:25;;;;;;;7.25;6.65;;;;;;;;;;5024829;28;20130;-79
2023/12/31 09:21:50;;;;;;;6.72;6.13;;;;;;;;;;5028785;28;20033;-79
2023/12/31 09:24:16;;;;;;;7.75;6.47;;;;;;;;;;5051135;28;20509;-80
2023/12/31 09:26:42;;;;;;;7.20;6.60;;;;;;;;;;5031381;28;20748;-80
2023/12/31 09:29:07;;;;;;;6.88;6.30;;;;;;;;;;5048437;28;20131;-79
2023/12/31 09:31:34;;;;;;;7.80;7.10;;;;;;;;;;5034634;28;20060;-80
2023/12/31 09:33:59;;;;;;;7.40;6.90;;;;;;;;;;5046122;28;20040;-80
2023/12/31 09:36:26;;;;;;;8.20;7.53;;;;;;;;;;5048230;28;20201;-79
2023/12/31 09:38:52;;;;;;;7.13;6.63;;;;;;;;;;5050405;28;20178;-80
2023/12/31 09:41:25;;;;;;;7.43;6.78;;;;;;;;;;5057215;28;20056;-80
2023/12/31 09:43:52;;;;;;;7.82;7.22;;;;;;;;;;5046612;28;20033;-80
2023/12/31 09:46:22;;;;;;;7.35;6.75;;;;;;;;;;5045837;28;20036;-79
2023/12/31 09:48:50;;;;;;;10.88;8.57;;;;;;;;;;5047425;28;20036;-80
2023/12/31 09:51:17;;;;;;;7.18;6.68;;;;;;;;;;5051428;28;20037;-79
2023/12/31 09:53:45;;;;;;;7.50;6.82;;;;;;;;;;5046155;28;20037;-80
2023/12/31 09:56:12;;;;;;;7.68;7.13;;;;;;;;;;5047158;28;20044;-81
2023/12/31 09:58:38;;;;;;;7.85;7.25;;;;;;;;;;5052194;28;20116;-81
2023/12/31 10:01:04;;;;;;;7.10;6.60;;;;;;;;;;5041912;28;20108;-80
2023/12/31 10:03:30;;;;;;;7.30;6.80;;;;;;;;;;5046697;28;20090;-80
2023/12/31 10:05:56;;;;;;;8.85;8.00;;;;;;;;;;5038475;28;20379;-80
2023/12/31 10:08:23;;;;;;;10.70;7.95;;;;;;;;;;5044155;28;20150;-80
2023/12/31 10:10:53;;;;;;;7.38;6.68;;;;;;;;;;5043210;28;20056;-80
2023/12/31 10:13:19;;;;;;;13.70;9.98;;;;;;;;;;5045219;28;20033;-79
2023/12/31 10:15:45;;;;;;;7.70;7.07;;;;;;;;;;5045708;28;20114;-80
2023/12/31 10:18:11;;;;;;;8.90;8.00;;;;;;;;;;5045555;28;20040;-80
2023/12/31 10:20:38;;;;;;;7.47;6.97;;;;;;;;;;5047098;28;20040;-80
2023/12/31 10:23:04;;;;;;;8.45;7.10;;;;;;;;;;5045648;28;20390;-80
2023/12/31 10:25:30;;;;;;;7.75;7.15;;;;;;;;;;5055674;28;20043;-80
2023/12/31 10:27:56;;;;;;;7.20;6.50;;;;;;;;;;5043127;28;20053;-81
2023/12/31 10:30:22;;;;;;;7.63;7.05;;;;;;;;;;5032122;28;20125;-81
2023/12/31 10:32:49;;;;;;;7.78;7.10;;;;;;;;;;5046085;28;20040;-81
2023/12/31 10:35:20;;;;;;;7.72;7.13;;;;;;;;;;5045495;28;20120;-80
2023/12/31 10:37:46;;;;;;;7.75;7.18;;;;;;;;;;5028732;28;20124;-80
2023/12/31 10:40:19;;;;;;;8.45;7.75;;;;;;;;;;5043168;28;20478;-81
2023/12/31 10:42:51;;;;;;;8.23;7.57;;;;;;;;;;5048906;28;20053;-79
2023/12/31 10:45:19;;;;;;;8.57;7.78;;;;;;;;;;5044723;28;20098;-80
2023/12/31 10:47:50;;;;;;;8.20;7.50;;;;;;;;;;5043220;28;20040;-80
2023/12/31 10:50:21;;;;;;;9.00;8.10;;;;;;;;;;5045664;28;20029;-80
2023/12/31 10:52:53;;;;;;;9.27;8.38;;;;;;;;;;5048485;28;20033;-79
2023/12/31 10:55:23;;;;;;;10.40;8.63;;;;;;;;;;5048089;28;20033;-78
2023/12/31 10:57:50;;;;;;;10.20;9.02;;;;;;;;;;5048059;28;20032;-80
2023/12/31 11:00:18;;;;;;;11.18;9.23;;;;;;;;;;5043960;28;20033;-81
2023/12/31 11:02:44;;;;;;;10.32;9.32;;;;;;;;;;5044665;28;20041;-80
2023/12/31 11:05:10;;;;;;;10.18;8.02;;;;;;;;;;5043224;28;20040;-80
2023/12/31 11:07:36;;;;;;;11.38;9.05;;;;;;;;;;5047114;28;20399;-80
2023/12/31 11:10:02;;;;;;;9.38;8.43;;;;;;;;;;5045056;28;20037;-80
2023/12/31 11:12:29;;;;;;;8.07;7.43;;;;;;;;;;5062393;28;20079;-79
2023/12/31 11:15:06;;;;;;;9.20;8.30;;;;;;;;;;5046644;28;20061;-79
2023/12/31 11:18:03;;;;;;;8.02;7.32;;;;;;;;;;5051706;28;20044;-79
2023/12/31 11:21:07;;;;;;;8.27;7.57;;;;;;;;;;5065757;28;20040;-79
2023/12/31 11:24:07;;;;;;;7.80;7.20;;;;;;;;;;5067606;28;20028;-78
2023/12/31 11:26:34;;;;;;;7.80;7.00;;;;;;;;;;5052184;28;20075;-80
2023/12/31 11:29:00;;;;;;;7.90;7.20;;;;;;;;;;5049449;28;20052;-79
2023/12/31 11:31:26;;;;;;;8.25;7.45;;;;;;;;;;5014818;28;20041;-80
2023/12/31 11:33:52;;;;;;;8.52;7.70;;;;;;;;;;5046532;28;20036;-80
2023/12/31 11:36:17;;;;;;;9.13;7.50;;;;;;;;;;5049215;28;20092;-81
2023/12/31 11:38:56;;;;;;;9.95;7.97;;;;;;;;;;5048615;28;20029;-81
2023/12/31 11:41:52;;;;;;;8.65;7.95;;;;;;;;;;5046154;28;20041;-81
2023/12/31 11:44:38;;;;;;;9.23;8.25;;;;;;;;;;5040757;28;20033;-81
2023/12/31 11:47:11;;;;;;;8.25;7.55;;;;;;;;;;5047985;28;20049;-81
2023/12/31 11:49:40;;;;;;;9.52;8.63;;;;;;;;;;5047000;28;20041;-81
2023/12/31 11:52:08;;;;;;;8.65;7.85;;;;;;;;;;5047032;28;20032;-81
2023/12/31 11:54:33;;;;;;;8.70;7.93;;;;;;;;;;5050321;28;20032;-80
2023/12/31 11:57:00;;;;;;;10.00;8.95;;;;;;;;;;5043971;28;20032;-81
2023/12/31 11:59:26;;;;;;;10.10;8.73;;;;;;;;;;5054675;28;20029;-80
2023/12/31 12:01:52;;;;;;;9.13;8.30;;;;;;;;;;5039331;28;20037;-80
2023/12/31 12:04:18;;;;;;;9.25;8.45;;;;;;;;;;5045537;28;20033;-81
2023/12/31 12:06:44;;;;;;;7.50;6.75;;;;;;;;;;5049099;28;20043;-81
2023/12/31 12:09:11;;;;;;;7.07;6.57;;;;;;;;;;5047628;28;20067;-80
2023/12/31 12:11:43;;;;;;;6.53;6.13;;;;;;;;;;5049469;28;20075;-80
2023/12/31 12:14:10;;;;;;;7.75;7.25;;;;;;;;;;5044138;28;20042;-80
2023/12/31 12:16:40;;;;;;;7.82;7.22;;;;;;;;;;5046978;28;20107;-81
2023/12/31 12:19:05;;;;;;;7.20;6.70;;;;;;;;;;5044357;28;20064;-81
2023/12/31 12:21:31;;;;;;;7.78;7.28;;;;;;;;;;5064497;28;20501;-79
2023/12/31 12:23:57;;;;;;;7.20;6.70;;;;;;;;;;5049297;28;20105;-80
2023/12/31 12:26:23;;;;;;;6.50;6.00;;;;;;;;;;5044648;28;20048;-80
2023/12/31 12:28:55;;;;;;;7.00;6.60;;;;;;;;;;5043024;28;20037;-81
2023/12/31 12:31:22;;;;;;;7.20;6.70;;;;;;;;;;5044388;28;20108;-79
2023/12/31 12:33:56;;;;;;;7.63;6.93;;;;;;;;;;5049601;28;20033;-80
2023/12/31 12:36:22;;;;;;;6.70;6.30;;;;;;;;;;5044794;28;20116;-80
2023/12/31 12:38:48;;;;;;;7.18;6.55;;;;;;;;;;5038682;28;20120;-80
2023/12/31 12:41:23;;;;;;;6.50;6.10;;;;;;;;;;5024924;28;20071;-80
2023/12/31 12:43:59;;;;;;;7.05;6.55;;;;;;;;;;5024742;28;20037;-81
2023/12/31 12:46:29;;;;;;;6.80;6.40;;;;;;;;;;5047619;28;20114;-80
2023/12/31 12:48:55;;;;;;;7.10;6.70;;;;;;;;;;5048113;28;20131;-81
2023/12/31 12:51:21;;;;;;;7.32;6.93;;;;;;;;;;5039912;28;20102;-80
2023/12/31 12:53:47;;;;;;;7.03;6.57;;;;;;;;;;5042538;28;20049;-80
2023/12/31 12:56:12;;;;;;;7.32;6.80;;;;;;;;;;5037596;28;20033;-81
2023/12/31 12:58:38;;;;;;;6.97;6.57;;;;;;;;;;5025635;28;20041;-81
2023/12/31 13:01:05;;;;;;;7.80;7.30;;;;;;;;;;5041367;28;20032;-81
2023/12/31 13:03:31;;;;;;;7.00;6.43;;;;;;;;;;5040691;28;20028;-80
2023/12/31 13:05:58;;;;;;;7.50;6.80;;;;;;;;;;5041481;28;20478;-81
2023/12/31 13:08:27;;;;;;;7.38;6.70;;;;;;;;;;5038329;28;20029;-81
2023/12/31 13:10:53;;;;;;;7.57;6.93;;;;;;;;;;5040188;28;20029;-81
2023/12/31 13:13:18;;;;;;;9.93;7.07;;;;;;;;;;5034625;28;20068;-81
2023/12/31 13:15:44;;;;;;;7.88;7.28;;;;;;;;;;5027089;28;20056;-80
2023/12/31 13:18:13;;;;;;;7.00;6.53;;;;;;;;;;5040241;28;20037;-80
2023/12/31 13:20:42;;;;;;;8.23;7.53;;;;;;;;;;5024710;28;20041;-81
2023/12/31 13:23:09;;;;;;;8.05;7.55;;;;;;;;;;5024817;28;20037;-80
2023/12/31 13:25:38;;;;;;;13.52;7.35;;;;;;;;;;5043190;28;20501;-80
2023/12/31 13:28:05;;;;;;;8.05;7.43;;;;;;;;;;5040940;28;20310;-80
2023/12/31 13:30:30;;;;;;;8.43;7.82;;;;;;;;;;5038614;28;20032;-80
2023/12/31 13:32:56;;;;;;;8.82;8.02;;;;;;;;;;5041450;28;20055;-82
2023/12/31 13:35:22;;;;;;;8.68;7.97;;;;;;;;;;5040334;28;20071;-80
2023/12/31 13:37:47;;;;;;;8.60;7.88;;;;;;;;;;5043377;28;20033;-80
2023/12/31 13:40:13;;;;;;;16.13;12.10;;;;;;;;;;5043151;28;20115;-80
2023/12/31 13:42:39;;;;;;;11.35;10.23;;;;;;;;;;5042462;28;20063;-82
2023/12/31 13:45:05;;;;;;;10.45;9.48;;;;;;;;;;5044938;28;20031;-81
2023/12/31 13:47:31;;;;;;;9.30;8.52;;;;;;;;;;5047583;28;20092;-81
2023/12/31 13:49:57;;;;;;;12.00;10.90;;;;;;;;;;5051415;28;20048;-81
2023/12/31 13:52:23;;;;;;;9.82;8.98;;;;;;;;;;5045870;28;20065;-81
2023/12/31 13:54:50;;;;;;;9.57;8.88;;;;;;;;;;5042159;28;20112;-82
2023/12/31 13:57:16;;;;;;;9.63;8.90;;;;;;;;;;5043058;28;20075;-82
2023/12/31 13:59:42;;;;;;;9.52;8.88;;;;;;;;;;5042433;28;20056;-81
2023/12/31 14:02:08;;;;;;;9.90;9.10;;;;;;;;;;5043569;28;20041;-80
2023/12/31 14:04:34;;;;;;;9.93;9.15;;;;;;;;;;5052543;28;20031;-80
2023/12/31 14:07:00;;;;;;;10.75;9.52;;;;;;;;;;5047292;28;20041;-81
2023/12/31 14:09:25;;;;;;;9.88;9.05;;;;;;;;;;5043474;28;20090;-81
2023/12/31 14:11:51;;;;;;;9.02;8.43;;;;;;;;;;5045024;28;20047;-81
2023/12/31 14:14:16;;;;;;;8.80;8.10;;;;;;;;;;5045151;28;20532;-83
2023/12/31 14:16:42;;;;;;;8.70;8.10;;;;;;;;;;5042893;28;20482;-81
2023/12/31 14:19:08;;;;;;;8.68;8.00;;;;;;;;;;5037121;28;20037;-81
2023/12/31 14:21:34;;;;;;;8.05;7.50;;;;;;;;;;5040182;28;20048;-80
2023/12/31 14:24:00;;;;;;;8.10;7.53;;;;;;;;;;5040603;28;20032;-81
2023/12/31 14:26:26;;;;;;;8.30;7.60;;;;;;;;;;5040931;28;20369;-80
2023/12/31 14:28:51;;;;;;;8.48;7.88;;;;;;;;;;5044493;28;20033;-80
2023/12/31 14:31:17;;;;;;;8.02;7.38;;;;;;;;;;5036285;28;20049;-79
2023/12/31 14:33:44;;;;;;;7.53;7.07;;;;;;;;;;5043462;28;20727;-79